Hardenville, Missouri
Current Conditions -  °F | °C
As of 4:53 PM on Thursday 23 Oct 2014 (Local Time) from KBPK Reporting Station
Overcast Overcast  
Wind Chill: 16°   Ceiling: 9000
Heat Index: 16°   Visibility: 10mi
Dew Point:   Wind: 6mph
Humidity: 64%   Direction: 140°SE
Pressure: 30.13"   Gusts: NA
Location:  36.59°N, 92.37°W
Report Text: KBPK 232153Z AUTO 14005KT 10SM FEW046 OVC090 16/09 A3013 RMK AO2 SLP202 T01610094
Loading
Personal Weather Stations






























Interactive Weather Map
Tropical Storm Tracking
New forecast layout! Learn more

10-Day Weather Forecast

Advertisements
Track Severe Weather on mobile